Time;durP1;ratioP1;P1;durP2;ratioP2;P2;SDS_P1;SDS_P2;PMS_P1;PMS_P2;Temp;Humidity;BMP_temperature;BMP_pressure;BME280_temperature;BME280_humidity;BME280_pressure;Samples;Min_cycle;Max_cycle;Signal;HPM_P1;HPM_P2
2022/08/28 00:00:50;;;;;;;;;8.00;8.00;;;;;19.06;50.76;100824.88;5118831;27;45388;-74
2022/08/28 00:03:16;;;;;;;;;11.00;11.00;;;;;19.04;50.66;100826.78;5118721;27;45402;-73
2022/08/28 00:05:42;;;;;;;;;11.25;11.25;;;;;18.99;50.70;100828.94;5117956;27;46275;-72
2022/08/28 00:08:10;;;;;;;;;11.75;11.75;;;;;18.87;51.07;100813.81;5118015;27;45362;-73
2022/08/28 00:10:38;;;;;;;;;7.50;7.50;;;;;18.90;51.58;100819.78;5118077;27;45389;-73
2022/08/28 00:13:06;;;;;;;;;9.75;9.75;;;;;18.89;51.34;100825.19;5118687;27;45503;-74
2022/08/28 00:15:34;;;;;;;;;9.50;9.50;;;;;18.86;51.54;100820.97;5098996;27;45499;-74
2022/08/28 00:18:02;;;;;;;;;12.00;12.00;;;;;18.79;51.66;100809.88;5117895;27;45471;-74
2022/08/28 00:20:29;;;;;;;;;10.00;10.00;;;;;18.77;51.50;100819.78;5099112;27;45363;-73
2022/08/28 00:22:55;;;;;;;;;9.00;9.00;;;;;18.74;51.70;100812.00;5118517;27;45627;-72
2022/08/28 00:25:23;;;;;;;;;10.50;10.50;;;;;18.59;52.00;100794.47;5098958;27;47549;-73
2022/08/28 00:27:56;;;;;;;;;11.00;11.00;;;;;18.67;51.99;100814.28;5118346;27;45543;-75
2022/08/28 00:30:31;;;;;;;;;9.50;8.75;;;;;18.64;52.37;100822.50;5118068;27;45230;-74
2022/08/28 00:33:00;;;;;;;;;10.25;10.25;;;;;18.60;52.62;100821.00;5118125;27;45415;-74
2022/08/28 00:35:26;;;;;;;;;8.75;8.75;;;;;18.58;52.35;100819.41;5117827;27;45579;-74
2022/08/28 00:37:53;;;;;;;;;13.25;13.25;;;;;18.56;52.66;100823.97;5117870;27;45352;-72
2022/08/28 00:40:22;;;;;;;;;8.50;8.50;;;;;18.54;52.48;100818.75;5100042;27;45338;-75
2022/08/28 00:42:47;;;;;;;;;10.25;10.25;;;;;18.48;53.11;100822.69;5118504;27;45227;-74
2022/08/28 00:45:14;;;;;;;;;10.75;10.75;;;;;18.46;53.13;100826.41;5099018;27;48083;-73
2022/08/28 00:47:40;;;;;;;;;8.50;8.50;;;;;18.43;52.98;100827.50;5117217;27;45354;-74
2022/08/28 00:50:08;;;;;;;;;9.25;9.25;;;;;18.39;53.31;100832.16;5117694;27;45394;-74
2022/08/28 00:52:34;;;;;;;;;9.75;9.75;;;;;18.37;53.25;100830.59;5117921;27;45278;-73
2022/08/28 00:55:12;;;;;;;;;10.50;10.50;;;;;18.33;53.45;100829.09;5117647;27;45588;-74
2022/08/28 00:57:50;;;;;;;;;10.75;10.75;;;;;18.31;53.79;100828.34;5117687;27;45396;-74
2022/08/28 01:00:37;;;;;;;;;6.75;6.75;;;;;18.25;53.88;100827.81;5098052;27;45563;-74
2022/08/28 01:03:04;;;;;;;;;7.25;7.25;;;;;18.24;53.54;100828.78;5098772;27;45560;-75
2022/08/28 01:05:30;;;;;;;;;10.00;10.00;;;;;18.20;53.95;100831.75;5117916;27;45900;-74
2022/08/28 01:07:58;;;;;;;;;8.75;8.75;;;;;18.15;54.21;100821.44;5117368;27;45370;-73
2022/08/28 01:10:27;;;;;;;;;7.50;7.50;;;;;18.14;54.20;100824.19;5098534;27;45441;-74
2022/08/28 01:12:55;;;;;;;;;10.00;10.00;;;;;18.13;54.46;100827.78;5118798;27;45580;-75
2022/08/28 01:15:31;;;;;;;;;7.50;7.50;;;;;18.12;54.57;100826.09;5099197;27;46669;-73
2022/08/28 01:18:01;;;;;;;;;9.00;9.00;;;;;18.10;54.60;100834.19;5099019;27;45882;-74
2022/08/28 01:20:30;;;;;;;;;10.00;10.00;;;;;18.07;54.95;100829.91;5118534;27;45447;-74
2022/08/28 01:23:19;;;;;;;;;9.00;9.00;;;;;18.03;55.01;100824.94;5099821;27;45597;-75
2022/08/28 01:25:44;;;;;;;;;9.00;9.00;;;;;18.03;55.23;100827.59;5117620;27;46591;-74
2022/08/28 01:28:12;;;;;;;;;8.00;8.00;;;;;18.01;55.27;100829.47;5102978;27;45412;-74
2022/08/28 01:30:41;;;;;;;;;11.50;11.50;;;;;17.86;55.16;100799.41;5104515;27;45365;-76
2022/08/28 01:33:07;;;;;;;;;8.00;8.00;;;;;17.96;55.30;100824.44;5118579;27;45337;-73
2022/08/28 01:35:36;;;;;;;;;8.50;8.50;;;;;17.93;55.44;100817.50;5117499;27;45341;-75
2022/08/28 01:38:03;;;;;;;;;9.00;8.50;;;;;17.92;55.69;100810.47;5118936;27;45367;-76
2022/08/28 01:40:39;;;;;;;;;8.50;8.25;;;;;17.88;55.72;100806.31;5124263;27;45345;-74
2022/08/28 01:43:11;;;;;;;;;8.75;8.75;;;;;17.81;55.80;100794.38;5124361;27;45226;-75
2022/08/28 01:45:38;;;;;;;;;8.75;8.75;;;;;17.84;55.89;100810.16;5121810;27;45435;-74
2022/08/28 01:48:06;;;;;;;;;9.00;9.00;;;;;17.83;55.78;100807.59;5118419;27;45381;-74
2022/08/28 01:50:32;;;;;;;;;8.00;8.00;;;;;17.79;56.07;100796.31;5118184;27;45310;-75
2022/08/28 01:52:58;;;;;;;;;9.25;9.25;;;;;17.77;56.20;100804.41;5117753;27;45495;-74
2022/08/28 01:55:23;;;;;;;;;10.50;10.50;;;;;17.74;56.69;100795.75;5117391;27;45401;-75
2022/08/28 01:57:52;;;;;;;;;9.50;9.50;;;;;17.71;56.68;100793.31;5099277;27;45461;-73
2022/08/28 02:00:19;;;;;;;;;11.25;11.25;;;;;17.66;56.63;100793.63;5116932;27;45325;-74
2022/08/28 02:02:45;;;;;;;;;10.25;10.25;;;;;17.64;56.65;100798.19;5118071;27;45591;-73
2022/08/28 02:05:11;;;;;;;;;10.00;10.00;;;;;17.59;57.04;100800.31;5098890;27;46237;-73
2022/08/28 02:07:37;;;;;;;;;9.25;9.25;;;;;17.60;57.07;100807.34;5099154;27;45445;-73
2022/08/28 02:10:04;;;;;;;;;9.00;9.00;;;;;17.53;57.20;100798.91;5118167;27;45336;-73
2022/08/28 02:12:30;;;;;;;;;8.50;8.50;;;;;17.52;56.96;100814.03;5118071;27;45410;-73
2022/08/28 02:14:56;;;;;;;;;10.25;10.25;;;;;17.52;57.41;100811.34;5117195;27;46205;-76
2022/08/28 02:17:21;;;;;;;;;10.75;10.75;;;;;17.46;57.52;100797.59;5117364;27;45302;-73
2022/08/28 02:19:46;;;;;;;;;9.00;9.00;;;;;17.48;57.34;100801.00;5098476;27;45344;-74
2022/08/28 02:22:12;;;;;;;;;9.25;9.25;;;;;17.46;57.67;100802.91;5117563;27;45343;-72
2022/08/28 02:24:38;;;;;;;;;10.75;10.75;;;;;17.46;57.59;100805.56;5116882;27;46196;-73
2022/08/28 02:27:04;;;;;;;;;9.00;9.00;;;;;17.42;57.67;100809.38;5116592;27;45223;-74
2022/08/28 02:29:30;;;;;;;;;9.00;9.00;;;;;17.41;57.87;100805.03;5098193;27;45499;-74
2022/08/28 02:31:55;;;;;;;;;9.50;9.50;;;;;17.36;58.08;100806.19;5117555;27;45195;-72
2022/08/28 02:34:21;;;;;;;;;9.00;9.00;;;;;17.37;58.15;100812.34;5098612;27;47276;-74
2022/08/28 02:36:47;;;;;;;;;8.00;8.00;;;;;17.34;58.20;100810.75;5098425;27;45373;-72
2022/08/28 02:39:13;;;;;;;;;11.00;11.00;;;;;17.35;58.63;100812.47;5117159;27;45308;-73
2022/08/28 02:41:39;;;;;;;;;11.50;11.25;;;;;17.34;58.08;100805.44;5117245;27;45599;-74
2022/08/28 02:44:04;;;;;;;;;8.50;8.50;;;;;17.28;58.44;100804.97;5116840;27;46082;-73
2022/08/28 02:46:29;;;;;;;;;10.00;10.00;;;;;17.30;58.69;100803.94;5116577;27;45330;-72
2022/08/28 02:48:55;;;;;;;;;11.00;11.00;;;;;17.28;58.75;100807.63;5117246;27;45381;-74
2022/08/28 02:51:21;;;;;;;;;8.25;8.25;;;;;17.23;58.73;100808.78;5117190;27;45581;-74
2022/08/28 02:53:46;;;;;;;;;9.50;9.50;;;;;17.22;58.92;100798.25;5116684;27;47308;-73
2022/08/28 02:56:12;;;;;;;;;8.50;8.50;;;;;17.26;58.78;100802.41;5117231;27;45337;-74
2022/08/28 02:58:39;;;;;;;;;10.75;10.75;;;;;17.23;59.02;100792.81;5116852;27;45449;-74
2022/08/28 03:01:08;;;;;;;;;11.00;11.00;;;;;17.21;59.41;100799.22;5116432;27;45559;-74
2022/08/28 03:03:34;;;;;;;;;11.25;11.25;;;;;17.18;59.10;100804.72;5098999;27;47172;-75
2022/08/28 03:06:00;;;;;;;;;10.50;10.50;;;;;17.15;59.27;100796.94;5119037;27;45428;-74
2022/08/28 03:08:26;;;;;;;;;10.00;10.00;;;;;17.12;59.49;100799.81;5116973;27;45381;-75
2022/08/28 03:10:52;;;;;;;;;11.75;11.75;;;;;17.07;60.04;100795.63;5098179;27;45506;-74
2022/08/28 03:13:18;;;;;;;;;10.50;10.50;;;;;17.04;59.92;100787.88;5116195;27;46188;-75
2022/08/28 03:15:45;;;;;;;;;10.25;10.25;;;;;17.06;59.94;100795.72;5116088;27;45264;-73
2022/08/28 03:18:12;;;;;;;;;12.00;12.00;;;;;17.03;59.93;100791.47;5116266;27;45338;-74
2022/08/28 03:20:37;;;;;;;;;9.75;9.75;;;;;16.97;59.95;100783.91;5116461;27;45178;-73
2022/08/28 03:25:47;;;;;;;;;7.25;7.25;;;;;16.93;60.37;100783.19;5116101;27;45340;-75
2022/08/28 03:28:12;;;;;;;;;10.00;10.00;;;;;16.96;60.28;100795.41;5116312;27;45286;-74
2022/08/28 03:30:38;;;;;;;;;9.75;9.75;;;;;16.89;60.56;100784.34;5116544;27;45578;-74
2022/08/28 03:33:03;;;;;;;;;10.75;10.00;;;;;16.91;60.38;100784.22;5118780;27;46422;-74
2022/08/28 03:35:29;;;;;;;;;10.50;10.50;;;;;16.96;60.53;100795.41;5117732;27;45301;-75
2022/08/28 03:37:55;;;;;;;;;10.25;10.25;;;;;16.96;60.21;100790.09;5118084;27;45899;-75
2022/08/28 03:40:20;;;;;;;;;10.50;10.50;;;;;16.95;60.28;100796.38;5116924;27;45606;-74
2022/08/28 03:42:46;;;;;;;;;11.75;11.75;;;;;16.94;60.38;100799.97;5116854;27;46287;-75
2022/08/28 03:45:12;;;;;;;;;10.50;10.50;;;;;16.91;60.69;100800.16;5116312;27;45361;-74
2022/08/28 03:47:39;;;;;;;;;10.00;10.00;;;;;16.91;60.79;100794.84;5116140;27;45394;-76
2022/08/28 03:50:05;;;;;;;;;12.00;12.00;;;;;16.89;60.75;100799.41;5116495;27;45346;-74
2022/08/28 03:52:31;;;;;;;;;12.25;12.25;;;;;16.84;61.11;100791.75;5116528;27;46718;-73
2022/08/28 03:54:56;;;;;;;;;11.75;11.75;;;;;16.78;60.98;100787.66;5116601;27;45293;-74
2022/08/28 03:57:22;;;;;;;;;10.00;10.00;;;;;16.76;61.57;100800.19;5116933;27;45904;-74
2022/08/28 03:59:50;;;;;;;;;11.50;11.50;;;;;16.71;61.64;100794.31;5116343;27;45569;-73
2022/08/28 04:02:18;;;;;;;;;14.75;14.50;;;;;16.70;61.53;100781.16;5096998;27;48601;-73
2022/08/28 04:04:44;;;;;;;;;8.75;8.75;;;;;16.71;61.54;100788.16;5115790;27;45460;-75
2022/08/28 04:07:10;;;;;;;;;12.00;12.00;;;;;16.70;61.99;100797.91;5097817;27;45385;-73
2022/08/28 04:09:36;;;;;;;;;10.00;10.00;;;;;16.63;61.99;100791.28;5097506;27;45656;-72
2022/08/28 04:12:01;;;;;;;;;9.00;9.00;;;;;16.63;61.98;100799.25;5115913;27;46023;-74
2022/08/28 04:14:27;;;;;;;;;10.00;10.00;;;;;16.58;62.32;100796.91;5116435;27;45301;-74
2022/08/28 04:16:52;;;;;;;;;12.25;12.00;;;;;16.51;62.21;100784.97;5116007;27;45226;-74
2022/08/28 04:19:17;;;;;;;;;10.50;10.50;;;;;16.57;62.45;100800.50;5116097;27;45199;-75
2022/08/28 04:21:43;;;;;;;;;10.75;10.75;;;;;16.51;62.78;100792.91;5115633;27;45232;-77
2022/08/28 04:24:08;;;;;;;;;8.00;8.00;;;;;16.50;62.70;100801.84;5118064;27;45192;-74
2022/08/28 04:26:35;;;;;;;;;10.00;10.00;;;;;16.48;62.96;100799.25;5118526;27;45560;-74
2022/08/28 04:29:03;;;;;;;;;9.50;9.50;;;;;16.49;63.01;100806.28;5119873;27;45350;-75
2022/08/28 04:31:28;;;;;;;;;10.75;10.75;;;;;16.46;63.25;100806.47;5119007;27;46303;-72
2022/08/28 04:33:54;;;;;;;;;10.00;10.00;;;;;16.39;63.47;100799.81;5118366;27;45349;-72
2022/08/28 04:36:20;;;;;;;;;9.50;9.50;;;;;16.37;63.10;100799.06;5099973;27;45242;-74
2022/08/28 04:38:46;;;;;;;;;10.00;10.00;;;;;16.38;63.48;100803.44;5118242;27;45357;-73
2022/08/28 04:41:15;;;;;;;;;10.00;10.00;;;;;16.36;63.79;100805.31;5118078;27;45357;-74
2022/08/28 04:43:41;;;;;;;;;10.25;10.25;;;;;16.31;63.93;100797.63;5118247;27;45266;-76
2022/08/28 04:46:10;;;;;;;;;11.00;9.75;;;;;16.30;64.06;100801.22;5118134;27;45314;-73
2022/08/28 04:48:35;;;;;;;;;10.50;10.50;;;;;16.30;64.33;100811.00;5118406;27;45343;-74
2022/08/28 04:51:04;;;;;;;;;11.75;11.75;;;;;16.28;64.14;100816.41;5117931;27;45330;-73
2022/08/28 04:53:31;;;;;;;;;10.25;10.25;;;;;16.28;63.96;100816.41;5100086;27;45393;-74
2022/08/28 04:55:59;;;;;;;;;10.25;10.25;;;;;16.27;64.47;100819.16;5118516;27;45382;-74
2022/08/28 04:58:25;;;;;;;;;11.25;10.50;;;;;16.27;64.23;100827.13;5118492;27;45381;-75
2022/08/28 05:00:52;;;;;;;;;10.00;10.00;;;;;16.27;64.25;100821.81;5117878;27;45246;-75
2022/08/28 05:03:18;;;;;;;;;11.25;11.25;;;;;16.27;64.42;100827.13;5117998;27;45256;-74
2022/08/28 05:05:46;;;;;;;;;12.00;12.00;;;;;16.24;64.67;100820.19;5117980;27;45438;-73
2022/08/28 05:08:13;;;;;;;;;10.00;10.00;;;;;16.28;64.66;100828.84;5108164;27;45539;-73
2022/08/28 05:10:39;;;;;;;;;12.00;12.00;;;;;16.26;64.68;100830.72;5137308;27;45907;-73
2022/08/28 05:13:07;;;;;;;;;11.00;11.00;;;;;16.26;65.07;100825.41;5139191;27;45354;-73
2022/08/28 05:15:32;;;;;;;;;11.50;11.00;;;;;16.24;64.61;100827.31;5138951;27;45215;-73
2022/08/28 05:17:58;;;;;;;;;10.00;10.00;;;;;16.25;65.40;100829.00;5120208;27;45363;-73
2022/08/28 05:20:24;;;;;;;;;8.25;8.25;;;;;16.25;64.91;100829.00;5138897;27;46318;-74
2022/08/28 05:22:49;;;;;;;;;11.25;11.25;;;;;16.24;64.79;100824.66;5138359;27;45401;-74
2022/08/28 05:25:15;;;;;;;;;12.25;12.25;;;;;16.30;64.91;100837.56;5138911;27;45516;-72
2022/08/28 05:27:40;;;;;;;;;10.00;9.75;;;;;16.29;65.04;100835.84;5139241;27;45311;-74
2022/08/28 05:30:06;;;;;;;;;11.00;11.00;;;;;16.31;64.95;100833.94;5138471;27;45416;-76
2022/08/28 05:32:32;;;;;;;;;8.25;8.25;;;;;16.31;65.26;100845.41;5139065;27;45265;-74
2022/08/28 05:34:57;;;;;;;;;10.00;10.00;;;;;16.29;64.99;100841.16;5137837;27;45480;-74
2022/08/28 05:37:23;;;;;;;;;13.75;13.75;;;;;16.30;65.49;100843.69;5138414;27;45588;-74
2022/08/28 05:39:48;;;;;;;;;10.25;10.25;;;;;16.27;65.07;100843.03;5119326;27;46732;-74
2022/08/28 05:42:13;;;;;;;;;11.00;11.00;;;;;16.28;65.38;100850.91;5137877;27;45435;-73
2022/08/28 05:44:39;;;;;;;;;10.00;10.00;;;;;16.30;65.36;100845.53;5134374;27;45247;-75
2022/08/28 05:47:04;;;;;;;;;10.50;10.50;;;;;16.25;65.55;100836.97;5118271;27;45455;-74
2022/08/28 05:49:29;;;;;;;;;9.00;9.00;;;;;16.31;65.54;100848.06;5125853;27;45300;-73
2022/08/28 05:51:55;;;;;;;;;10.25;10.25;;;;;16.33;65.75;100853.28;5133573;27;45234;-74
2022/08/28 05:54:21;;;;;;;;;9.75;9.75;;;;;16.34;65.67;100857.66;5127198;27;45496;-73
2022/08/28 05:56:46;;;;;;;;;8.25;8.25;;;;;16.37;65.71;100854.81;5120712;27;45714;-74
2022/08/28 05:59:13;;;;;;;;;15.75;15.50;;;;;16.38;65.72;100851.22;5116994;27;46256;-73
2022/08/28 06:01:44;;;;;;;;;12.50;12.50;;;;;16.39;65.36;100852.94;5126888;27;45331;-76
2022/08/28 06:04:13;;;;;;;;;11.25;11.25;;;;;16.44;65.75;100856.16;5112984;27;45276;-73
2022/08/28 06:06:40;;;;;;;;;10.25;10.00;;;;;16.47;65.70;100852.47;5127110;27;45498;-75
2022/08/28 06:09:15;;;;;;;;;11.00;11.00;;;;;16.46;66.02;100859.56;5137627;27;46517;-74
2022/08/28 06:11:41;;;;;;;;;12.25;12.25;;;;;16.47;65.77;100852.47;5113665;27;46138;-75
2022/08/28 06:14:09;;;;;;;;;12.00;12.00;;;;;16.47;65.90;100850.66;5130554;27;45343;-75
2022/08/28 06:16:37;;;;;;;;;10.00;10.00;;;;;16.53;65.74;100853.88;5113087;27;45539;-74
2022/08/28 06:19:03;;;;;;;;;11.75;11.75;;;;;16.60;65.52;100861.41;5110261;27;46596;-75
2022/08/28 06:21:29;;;;;;;;;8.75;8.75;;;;;16.63;65.80;100855.91;5112147;27;46899;-72
2022/08/28 06:23:54;;;;;;;;;11.00;11.00;;;;;16.69;65.35;100851.16;5098225;27;45997;-74
2022/08/28 06:26:20;;;;;;;;;9.75;9.75;;;;;16.69;65.42;100851.16;5097260;27;47075;-74
2022/08/28 06:28:45;;;;;;;;;11.00;11.00;;;;;16.78;65.16;100861.22;5105038;27;47215;-73
2022/08/28 06:31:11;;;;;;;;;9.50;9.50;;;;;16.78;65.03;100843.44;5110822;27;45603;-74
2022/08/28 06:33:36;;;;;;;;;12.25;12.25;;;;;16.88;65.18;100857.03;5111512;27;45586;-74
2022/08/28 06:36:03;;;;;;;;;9.50;9.50;;;;;16.93;64.86;100867.34;5113774;27;45953;-73
2022/08/28 06:38:29;;;;;;;;;12.75;12.75;;;;;16.95;64.69;100854.81;5130118;27;46376;-74
2022/08/28 06:40:55;;;;;;;;;9.00;9.00;;;;;16.96;65.19;100861.00;5116088;27;45277;-74
2022/08/28 06:43:24;;;;;;;;;12.25;12.25;;;;;16.96;64.82;100851.22;5133036;27;45309;-74
2022/08/28 06:45:53;;;;;;;;;11.00;11.00;;;;;17.02;64.72;100861.53;5109564;27;45727;-74
2022/08/28 06:48:22;;;;;;;;;14.50;14.50;;;;;17.04;64.79;100862.28;5092821;27;46976;-74
2022/08/28 06:50:49;;;;;;;;;10.75;10.00;;;;;17.10;64.72;100873.47;5112945;27;45492;-73
2022/08/28 06:53:17;;;;;;;;;9.75;9.75;;;;;17.12;64.66;100866.25;5110332;27;45500;-75
2022/08/28 06:55:43;;;;;;;;;11.25;11.25;;;;;17.16;64.35;100867.75;5110306;27;46900;-76
2022/08/28 06:58:10;;;;;;;;;12.75;12.00;;;;;17.22;64.34;100872.69;5110070;27;46231;-73
2022/08/28 07:00:36;;;;;;;;;13.00;13.00;;;;;17.21;64.51;100861.19;5111018;27;45657;-73
2022/08/28 07:03:04;;;;;;;;;11.75;11.75;;;;;17.27;64.42;100872.38;5124126;27;45661;-73
2022/08/28 07:05:30;;;;;;;;;10.25;10.25;;;;;17.30;64.42;100870.41;5111168;27;45741;-74
2022/08/28 07:07:56;;;;;;;;;15.00;15.00;;;;;17.37;64.33;100871.69;5112859;27;46554;-72
2022/08/28 07:10:21;;;;;;;;;12.00;12.00;;;;;17.41;64.04;100859.03;5112228;27;45606;-73
2022/08/28 07:12:50;;;;;;;;;20.00;20.00;;;;;17.45;64.19;100863.22;5093354;27;45627;-74
2022/08/28 07:15:17;;;;;;;;;12.50;12.50;;;;;17.51;64.02;100869.94;5097964;27;45443;-75
2022/08/28 07:17:43;;;;;;;;;11.50;11.50;;;;;17.59;63.78;100870.31;5096855;27;47635;-74
2022/08/28 07:20:10;;;;;;;;;15.00;14.75;;;;;17.66;64.01;100868.09;5111295;27;46559;-75
2022/08/28 07:22:36;;;;;;;;;17.50;16.00;;;;;17.76;63.74;100873.66;5095781;27;45673;-76
2022/08/28 07:25:03;;;;;;;;;13.75;13.00;;;;;17.85;63.37;100877.53;5110283;27;45623;-73
2022/08/28 07:27:30;;;;;;;;;13.75;13.75;;;;;17.94;63.23;100877.75;5108258;27;45561;-74
2022/08/28 07:29:56;;;;;;;;;13.25;12.25;;;;;18.05;63.04;100887.72;5115373;27;46487;-73
2022/08/28 07:32:21;;;;;;;;;11.00;11.00;;;;;18.15;63.04;100892.44;5126278;27;45496;-73
2022/08/28 07:34:48;;;;;;;;;10.75;10.75;;;;;18.20;62.73;100887.66;5110060;27;45696;-75
2022/08/28 07:37:14;;;;;;;;;9.25;9.25;;;;;18.28;62.58;100881.81;5100549;27;46634;-75
2022/08/28 07:39:39;;;;;;;;;10.25;10.25;;;;;18.42;62.57;100891.50;5110341;27;46349;-73
2022/08/28 07:42:05;;;;;;;;;12.75;12.75;;;;;18.45;62.28;100889.50;5128132;27;45401;-73
2022/08/28 07:44:49;;;;;;;;;11.50;11.50;;;;;18.56;61.85;100879.91;5115487;27;45322;-74
2022/08/28 07:47:16;;;;;;;;;14.00;14.00;;;;;18.66;61.66;100892.50;5125557;27;46421;-76
2022/08/28 07:49:42;;;;;;;;;11.50;11.50;;;;;18.71;61.32;100894.84;5124009;27;45474;-74
2022/08/28 07:52:08;;;;;;;;;10.25;10.25;;;;;18.81;61.25;100892.41;5114788;27;45581;-75
2022/08/28 07:54:35;;;;;;;;;9.50;9.50;;;;;18.88;61.32;100896.31;5109136;27;46260;-74
2022/08/28 07:57:04;;;;;;;;;9.75;9.75;;;;;18.95;60.75;100894.06;5112414;27;45701;-76
2022/08/28 07:59:30;;;;;;;;;10.50;10.50;;;;;19.08;60.58;100891.44;5113323;27;45728;-73
2022/08/28 08:01:55;;;;;;;;;9.00;9.00;;;;;19.19;60.66;100896.00;5101340;27;45447;-75
2022/08/28 08:04:22;;;;;;;;;10.00;10.00;;;;;19.25;60.24;100907.06;5128461;27;45344;-75
2022/08/28 08:06:48;;;;;;;;;10.25;9.50;;;;;19.33;59.97;100906.53;5118708;27;45596;-74
2022/08/28 08:09:16;;;;;;;;;10.50;10.50;;;;;19.38;59.74;100893.72;5126069;27;45567;-74
2022/08/28 08:11:42;;;;;;;;;10.25;10.25;;;;;19.45;59.26;100890.59;5121731;27;45633;-76
2022/08/28 08:14:08;;;;;;;;;8.00;8.00;;;;;19.55;59.21;100891.63;5129747;27;45217;-76
2022/08/28 08:16:37;;;;;;;;;16.00;15.25;;;;;19.68;59.29;100892.41;5129795;27;45490;-75
2022/08/28 08:19:03;;;;;;;;;10.00;10.00;;;;;19.73;59.01;100885.88;5119232;27;45462;-74
2022/08/28 08:21:29;;;;;;;;;13.25;13.25;;;;;19.84;58.65;100894.81;5130456;27;45531;-75
2022/08/28 08:23:55;;;;;;;;;11.00;11.00;;;;;19.89;58.66;100897.13;5115693;27;45538;-75
2022/08/28 08:26:23;;;;;;;;;10.00;10.00;;;;;19.88;57.91;100894.59;5103571;27;46346;-73
2022/08/28 08:28:50;;;;;;;;;9.00;9.00;;;;;19.97;58.15;100894.75;5129051;27;45286;-75
2022/08/28 08:31:21;;;;;;;;;11.50;11.50;;;;;20.12;57.83;100898.09;5121246;27;45450;-77
2022/08/28 08:33:50;;;;;;;;;9.50;9.50;;;;;20.14;57.19;100903.31;5134295;27;45314;-77
2022/08/28 08:36:18;;;;;;;;;11.25;11.25;;;;;20.17;57.59;100899.56;5142708;27;45747;-75
2022/08/28 08:38:45;;;;;;;;;11.00;11.00;;;;;20.19;57.54;100893.16;5138061;27;45335;-76
2022/08/28 08:41:16;;;;;;;;;12.00;12.00;;;;;20.39;56.93;100909.47;5143609;27;45345;-73
2022/08/28 08:43:57;;;;;;;;;11.00;11.00;;;;;20.45;56.69;100909.00;5131314;27;45351;-75
2022/08/28 08:46:45;;;;;;;;;10.00;10.00;;;;;20.51;56.77;100905.00;5119569;27;46293;-78
2022/08/28 08:49:17;;;;;;;;;13.25;12.25;;;;;20.61;56.72;100907.81;5095566;27;45365;-74
2022/08/28 08:51:53;;;;;;;;;13.75;13.75;;;;;20.66;56.53;100906.47;5126261;27;45537;-76
2022/08/28 08:54:20;;;;;;;;;12.00;12.00;;;;;20.74;55.77;100903.22;5123990;27;45251;-75
2022/08/28 08:56:47;;;;;;;;;12.25;12.25;;;;;20.82;56.28;100908.00;5137819;27;46582;-71
2022/08/28 08:59:29;;;;;;;;;13.00;13.00;;;;;20.94;55.70;100898.13;5138128;27;45334;-72
2022/08/28 09:02:21;;;;;;;;;11.25;11.25;;;;;21.01;55.47;100897.56;5117998;27;45505;-72
2022/08/28 09:04:53;;;;;;;;;15.75;15.75;;;;;21.11;55.15;100897.66;5117749;27;45354;-77
2022/08/28 09:07:38;;;;;;;;;9.50;9.50;;;;;21.11;55.14;100899.47;5118451;27;46358;-78
2022/08/28 09:10:10;;;;;;;;;13.75;13.75;;;;;21.07;54.85;100890.00;5119400;27;45356;-76
2022/08/28 09:12:59;;;;;;;;;14.25;14.25;;;;;21.19;55.09;100896.19;5123292;27;45579;-76
2022/08/28 09:15:28;;;;;;;;;12.75;12.75;;;;;21.30;54.90;100899.69;5136038;27;45486;-76
2022/08/28 09:18:11;;;;;;;;;14.75;14.75;;;;;21.43;54.19;100891.53;5125467;27;45567;-77
2022/08/28 09:20:37;;;;;;;;;14.00;14.00;;;;;21.53;54.37;100894.31;5118923;27;45234;-79
2022/08/28 09:23:03;;;;;;;;;11.75;11.75;;;;;21.64;54.06;100890.78;5138990;27;45385;-77
2022/08/28 09:25:43;;;;;;;;;10.75;10.75;;;;;21.77;53.95;100884.41;5140390;27;45203;-76
2022/08/28 09:28:22;;;;;;;;;14.25;14.25;;;;;21.77;53.68;100876.38;5137843;27;46324;-78
2022/08/28 09:30:59;;;;;;;;;11.00;11.00;;;;;21.97;53.35;100890.78;5099028;27;45911;-71
2022/08/28 09:33:54;;;;;;;;;16.25;16.25;;;;;22.09;53.38;100899.59;5117655;27;45464;-73
2022/08/28 09:36:35;;;;;;;;;15.75;15.75;;;;;22.12;52.78;100899.34;5099492;27;45726;-73
2022/08/28 09:39:39;;;;;;;;;14.25;13.25;;;;;22.14;52.91;100908.09;5116277;27;46706;-73
2022/08/28 09:45:12;;;;;;;;;15.00;15.00;;;;;22.34;52.11;100893.03;5101383;27;45235;-74
2022/08/28 09:47:38;;;;;;;;;16.50;16.50;;;;;22.39;52.15;100890.81;5122064;27;44920;-73
2022/08/28 09:50:19;;;;;;;;;16.75;16.75;;;;;22.44;51.81;100888.56;5122106;27;47924;-73
2022/08/28 09:52:45;;;;;;;;;13.75;13.75;;;;;22.39;51.78;100889.97;5107470;27;45370;-72
2022/08/28 09:55:18;;;;;;;;;16.50;16.50;;;;;22.44;51.99;100882.38;5126417;27;45525;-77
2022/08/28 09:57:46;;;;;;;;;19.50;17.25;;;;;22.48;51.44;100881.16;5119112;27;45437;-76
2022/08/28 10:00:11;;;;;;;;;15.50;15.50;;;;;22.46;51.39;100883.13;5130969;27;47384;-72
2022/08/28 10:02:47;;;;;;;;;17.00;16.75;;;;;22.44;51.46;100880.53;5117926;27;45312;-72
2022/08/28 10:05:17;;;;;;;;;19.00;19.00;;;;;22.49;51.63;100882.88;5116544;27;45256;-75
2022/08/28 10:08:00;;;;;;;;;17.75;17.00;;;;;22.56;51.32;100883.16;5126238;27;45441;-75
2022/08/28 10:10:37;;;;;;;;;15.75;15.75;;;;;22.66;50.70;100880.53;5117270;27;47490;-77
2022/08/28 10:13:15;;;;;;;;;15.75;15.75;;;;;22.69;50.67;100873.06;5131785;27;45571;-75
2022/08/28 10:15:40;;;;;;;;;15.00;15.00;;;;;22.84;50.61;100878.09;5131974;27;45369;-75
2022/08/28 10:18:14;;;;;;;;;18.00;18.00;;;;;22.91;50.18;100872.03;5117100;27;45473;-76
2022/08/28 10:21:01;;;;;;;;;21.50;21.50;;;;;22.97;49.35;100880.53;5123220;27;46537;-74
2022/08/28 10:23:54;;;;;;;;;16.50;15.50;;;;;22.89;50.48;100871.34;5135602;27;45386;-78
2022/08/28 10:26:27;;;;;;;;;15.50;15.50;;;;;23.01;49.87;100874.78;5135009;27;45319;-80
2022/08/28 10:29:18;;;;;;;;;13.00;13.00;;;;;23.02;50.51;100875.59;5120534;27;45501;-79
2022/08/28 10:32:10;;;;;;;;;14.25;13.75;;;;;23.08;49.94;100874.22;5138828;27;46555;-82
2022/08/28 10:34:45;;;;;;;;;14.00;14.00;;;;;23.19;49.85;100880.31;5137322;27;45453;-80
2022/08/28 10:37:31;;;;;;;;;14.00;14.00;;;;;23.30;49.54;100874.03;5138706;27;45296;-81
2022/08/28 10:40:02;;;;;;;;;14.75;14.75;;;;;23.40;49.50;100871.38;5119006;27;45215;-78
2022/08/28 10:42:54;;;;;;;;;13.00;13.00;;;;;23.55;48.65;100870.97;5137582;27;46570;-78
2022/08/28 10:45:23;;;;;;;;;17.25;16.00;;;;;23.63;48.20;100868.44;5137746;27;45305;-78
2022/08/28 10:47:54;;;;;;;;;13.00;13.00;;;;;23.73;48.38;100869.28;5138024;27;45481;-76
2022/08/28 10:50:26;;;;;;;;;16.50;16.50;;;;;23.81;48.53;100881.16;5139511;27;45254;-77
2022/08/28 10:53:06;;;;;;;;;14.25;14.25;;;;;23.88;47.95;100871.53;5139675;27;45246;-78
2022/08/28 10:56:02;;;;;;;;;14.00;14.00;;;;;23.96;48.44;100878.91;5139222;27;45337;-79
2022/08/28 10:58:31;;;;;;;;;11.75;11.75;;;;;24.06;47.55;100880.59;5102711;27;46139;-78
2022/08/28 11:01:03;;;;;;;;;17.00;17.00;;;;;24.14;47.30;100879.03;5139164;27;45331;-77
2022/08/28 11:03:40;;;;;;;;;12.00;12.00;;;;;24.17;47.11;100878.75;5139825;27;46272;-78
2022/08/28 11:06:26;;;;;;;;;12.25;12.25;;;;;24.29;47.60;100879.47;5138952;27;45233;-80
2022/08/28 11:08:55;;;;;;;;;13.00;13.00;;;;;24.39;46.95;100872.22;5119702;27;45299;-78
2022/08/28 11:11:41;;;;;;;;;12.00;12.00;;;;;24.46;46.61;100867.94;5120329;27;45543;-77
2022/08/28 11:14:09;;;;;;;;;16.00;16.00;;;;;24.57;46.73;100871.47;5138487;27;46238;-80
2022/08/28 11:16:42;;;;;;;;;10.50;10.50;;;;;24.73;46.85;100868.16;5140193;27;45445;-77
2022/08/28 11:19:14;;;;;;;;;10.25;10.25;;;;;24.86;46.11;100866.00;5137156;27;45376;-80
2022/08/28 11:21:54;;;;;;;;;10.75;10.75;;;;;24.85;45.95;100867.00;5137348;27;45281;-79
2022/08/28 11:24:41;;;;;;;;;13.00;13.00;;;;;24.85;46.17;100863.44;5137223;27;45287;-79
2022/08/28 11:27:29;;;;;;;;;13.00;13.00;;;;;24.98;45.42;100861.28;5137303;27;45490;-81
2022/08/28 11:30:05;;;;;;;;;13.00;13.00;;;;;25.20;45.68;100859.19;5140361;27;45468;-80